sensor_id;sensor_type;location;lat;lon;timestamp;temperature;humidity
19654;DHT22;9975;48.046;7.804;2022-10-16T01:57:32;13.80;99.90
19654;DHT22;9975;48.046;7.804;2022-10-16T02:00:03;14.00;99.90
19654;DHT22;9975;48.046;7.804;2022-10-16T02:02:31;14.00;99.90
19654;DHT22;9975;48.046;7.804;2022-10-16T02:06:00;13.90;99.90
19654;DHT22;9975;48.046;7.804;2022-10-16T02:08:20;13.90;99.90
19654;DHT22;9975;48.046;7.804;2022-10-16T02:10:46;13.90;99.90
19654;DHT22;9975;48.046;7.804;2022-10-16T02:13:22;13.90;99.90
19654;DHT22;9975;48.046;7.804;2022-10-16T02:15:49;13.90;99.90
19654;DHT22;9975;48.046;7.804;2022-10-16T02:18:15;14.00;99.90
19654;DHT22;9975;48.046;7.804;2022-10-16T02:20:52;14.00;99.90
19654;DHT22;9975;48.046;7.804;2022-10-16T02:23:45;13.90;99.90
19654;DHT22;9975;48.046;7.804;2022-10-16T02:26:15;13.90;99.90
19654;DHT22;9975;48.046;7.804;2022-10-16T02:28:48;14.00;99.90
19654;DHT22;9975;48.046;7.804;2022-10-16T02:31:23;14.00;99.90
19654;DHT22;9975;48.046;7.804;2022-10-16T02:33:53;14.00;99.90
19654;DHT22;9975;48.046;7.804;2022-10-16T02:36:20;14.10;99.90
19654;DHT22;9975;48.046;7.804;2022-10-16T02:38:46;14.10;99.90
19654;DHT22;9975;48.046;7.804;2022-10-16T02:41:12;14.00;99.90
19654;DHT22;9975;48.046;7.804;2022-10-16T02:43:39;14.00;99.90
19654;DHT22;9975;48.046;7.804;2022-10-16T02:46:04;13.90;99.90
19654;DHT22;9975;48.046;7.804;2022-10-16T02:48:30;14.00;99.90
19654;DHT22;9975;48.046;7.804;2022-10-16T02:50:56;14.00;99.90
19654;DHT22;9975;48.046;7.804;2022-10-16T02:53:22;13.90;99.90
19654;DHT22;9975;48.046;7.804;2022-10-16T02:55:48;13.90;99.90
19654;DHT22;9975;48.046;7.804;2022-10-16T02:58:13;13.90;99.90
19654;DHT22;9975;48.046;7.804;2022-10-16T03:00:39;13.90;99.90
19654;DHT22;9975;48.046;7.804;2022-10-16T03:03:05;13.80;99.90
19654;DHT22;9975;48.046;7.804;2022-10-16T03:05:31;13.90;99.90
19654;DHT22;9975;48.046;7.804;2022-10-16T03:07:56;13.90;99.90
19654;DHT22;9975;48.046;7.804;2022-10-16T03:10:25;13.80;99.90
19654;DHT22;9975;48.046;7.804;2022-10-16T03:12:51;13.90;99.90
19654;DHT22;9975;48.046;7.804;2022-10-16T03:15:16;13.90;99.90
19654;DHT22;9975;48.046;7.804;2022-10-16T03:17:42;13.90;99.90
19654;DHT22;9975;48.046;7.804;2022-10-16T03:20:08;13.80;99.90
19654;DHT22;9975;48.046;7.804;2022-10-16T03:22:34;13.90;99.90
19654;DHT22;9975;48.046;7.804;2022-10-16T03:25:00;13.90;99.90
19654;DHT22;9975;48.046;7.804;2022-10-16T03:27:26;13.90;99.90
19654;DHT22;9975;48.046;7.804;2022-10-16T03:29:51;13.90;99.90
19654;DHT22;9975;48.046;7.804;2022-10-16T03:32:17;13.90;99.90
19654;DHT22;9975;48.046;7.804;2022-10-16T03:34:43;13.80;99.90
19654;DHT22;9975;48.046;7.804;2022-10-16T03:37:09;13.80;99.90
19654;DHT22;9975;48.046;7.804;2022-10-16T03:39:35;13.80;99.90
19654;DHT22;9975;48.046;7.804;2022-10-16T03:42:00;13.80;99.90
19654;DHT22;9975;48.046;7.804;2022-10-16T03:44:26;13.80;99.90
19654;DHT22;9975;48.046;7.804;2022-10-16T03:46:51;13.80;99.90
19654;DHT22;9975;48.046;7.804;2022-10-16T03:49:17;13.70;99.90
19654;DHT22;9975;48.046;7.804;2022-10-16T03:51:43;13.80;99.90
19654;DHT22;9975;48.046;7.804;2022-10-16T03:54:10;13.80;99.90
19654;DHT22;9975;48.046;7.804;2022-10-16T03:56:35;13.70;99.90
19654;DHT22;9975;48.046;7.804;2022-10-16T03:59:01;13.80;99.90
19654;DHT22;9975;48.046;7.804;2022-10-16T04:01:27;13.80;99.90
19654;DHT22;9975;48.046;7.804;2022-10-16T04:03:52;13.80;99.90
19654;DHT22;9975;48.046;7.804;2022-10-16T04:06:18;13.80;99.90
19654;DHT22;9975;48.046;7.804;2022-10-16T04:08:44;13.80;99.90
19654;DHT22;9975;48.046;7.804;2022-10-16T04:11:09;13.80;99.90
19654;DHT22;9975;48.046;7.804;2022-10-16T04:13:35;13.80;99.90
19654;DHT22;9975;48.046;7.804;2022-10-16T04:16:00;13.80;99.90
19654;DHT22;9975;48.046;7.804;2022-10-16T04:18:26;13.80;99.90
19654;DHT22;9975;48.046;7.804;2022-10-16T04:20:53;13.80;99.90
19654;DHT22;9975;48.046;7.804;2022-10-16T04:23:19;13.80;99.90
19654;DHT22;9975;48.046;7.804;2022-10-16T04:25:44;13.80;99.90
19654;DHT22;9975;48.046;7.804;2022-10-16T04:28:10;13.80;99.90
19654;DHT22;9975;48.046;7.804;2022-10-16T04:30:38;13.80;99.90
19654;DHT22;9975;48.046;7.804;2022-10-16T04:33:04;13.80;99.90
19654;DHT22;9975;48.046;7.804;2022-10-16T04:35:30;13.80;99.90
19654;DHT22;9975;48.046;7.804;2022-10-16T04:37:57;13.80;99.90
19654;DHT22;9975;48.046;7.804;2022-10-16T04:40:23;13.70;99.90
19654;DHT22;9975;48.046;7.804;2022-10-16T04:42:49;13.80;99.90
19654;DHT22;9975;48.046;7.804;2022-10-16T04:45:15;13.70;99.90
19654;DHT22;9975;48.046;7.804;2022-10-16T04:47:40;13.80;99.90
19654;DHT22;9975;48.046;7.804;2022-10-16T04:50:06;13.70;99.90
19654;DHT22;9975;48.046;7.804;2022-10-16T04:52:32;13.70;99.90
19654;DHT22;9975;48.046;7.804;2022-10-16T04:54:59;13.70;99.90
19654;DHT22;9975;48.046;7.804;2022-10-16T04:57:28;13.70;99.90
19654;DHT22;9975;48.046;7.804;2022-10-16T04:59:54;13.70;99.90
19654;DHT22;9975;48.046;7.804;2022-10-16T05:02:19;13.70;99.90
19654;DHT22;9975;48.046;7.804;2022-10-16T05:04:45;13.70;99.90
19654;DHT22;9975;48.046;7.804;2022-10-16T05:07:11;13.60;99.90
19654;DHT22;9975;48.046;7.804;2022-10-16T05:09:36;13.60;99.90
19654;DHT22;9975;48.046;7.804;2022-10-16T05:12:02;13.60;99.90
19654;DHT22;9975;48.046;7.804;2022-10-16T05:14:29;13.50;99.90
19654;DHT22;9975;48.046;7.804;2022-10-16T05:16:54;13.50;99.90
19654;DHT22;9975;48.046;7.804;2022-10-16T05:19:20;13.60;99.90
19654;DHT22;9975;48.046;7.804;2022-10-16T05:21:46;13.50;99.90
19654;DHT22;9975;48.046;7.804;2022-10-16T05:24:11;13.50;99.90
19654;DHT22;9975;48.046;7.804;2022-10-16T05:26:37;13.50;99.90
19654;DHT22;9975;48.046;7.804;2022-10-16T05:29:03;13.50;99.90
19654;DHT22;9975;48.046;7.804;2022-10-16T05:31:28;13.50;99.90
19654;DHT22;9975;48.046;7.804;2022-10-16T05:33:59;13.50;99.90
19654;DHT22;9975;48.046;7.804;2022-10-16T05:36:25;13.50;99.90
19654;DHT22;9975;48.046;7.804;2022-10-16T05:38:51;13.60;99.90
19654;DHT22;9975;48.046;7.804;2022-10-16T05:41:17;13.60;99.90
19654;DHT22;9975;48.046;7.804;2022-10-16T05:43:47;13.60;99.90
19654;DHT22;9975;48.046;7.804;2022-10-16T05:46:13;13.60;99.90
19654;DHT22;9975;48.046;7.804;2022-10-16T05:48:38;13.60;99.90
19654;DHT22;9975;48.046;7.804;2022-10-16T05:51:06;13.60;99.90
19654;DHT22;9975;48.046;7.804;2022-10-16T05:53:33;13.60;99.90
19654;DHT22;9975;48.046;7.804;2022-10-16T05:56:00;13.60;99.90
19654;DHT22;9975;48.046;7.804;2022-10-16T05:58:29;13.60;99.90
19654;DHT22;9975;48.046;7.804;2022-10-16T06:01:01;13.60;99.90
19654;DHT22;9975;48.046;7.804;2022-10-16T06:03:27;13.60;99.90
19654;DHT22;9975;48.046;7.804;2022-10-16T06:05:53;13.70;99.90
19654;DHT22;9975;48.046;7.804;2022-10-16T06:08:21;13.70;99.90
19654;DHT22;9975;48.046;7.804;2022-10-16T06:10:47;13.70;99.90
19654;DHT22;9975;48.046;7.804;2022-10-16T06:13:14;13.70;99.90
19654;DHT22;9975;48.046;7.804;2022-10-16T06:15:41;13.70;99.90
19654;DHT22;9975;48.046;7.804;2022-10-16T06:18:08;13.70;99.90
19654;DHT22;9975;48.046;7.804;2022-10-16T06:20:34;13.70;99.90
19654;DHT22;9975;48.046;7.804;2022-10-16T06:23:00;13.70;99.90
19654;DHT22;9975;48.046;7.804;2022-10-16T06:25:26;13.70;99.90
19654;DHT22;9975;48.046;7.804;2022-10-16T06:27:51;13.80;99.90
19654;DHT22;9975;48.046;7.804;2022-10-16T06:30:17;13.90;99.90
19654;DHT22;9975;48.046;7.804;2022-10-16T06:32:42;13.80;99.90
19654;DHT22;9975;48.046;7.804;2022-10-16T06:35:08;13.90;99.90
19654;DHT22;9975;48.046;7.804;2022-10-16T06:37:34;13.90;99.90
19654;DHT22;9975;48.046;7.804;2022-10-16T06:39:59;13.90;99.90
19654;DHT22;9975;48.046;7.804;2022-10-16T06:42:25;13.90;99.90
19654;DHT22;9975;48.046;7.804;2022-10-16T06:44:51;13.90;99.90
19654;DHT22;9975;48.046;7.804;2022-10-16T06:47:17;14.00;99.90
19654;DHT22;9975;48.046;7.804;2022-10-16T06:49:43;14.00;99.90
19654;DHT22;9975;48.046;7.804;2022-10-16T06:52:08;14.00;99.90
19654;DHT22;9975;48.046;7.804;2022-10-16T06:54:34;14.10;99.90
19654;DHT22;9975;48.046;7.804;2022-10-16T06:56:59;14.10;99.90
19654;DHT22;9975;48.046;7.804;2022-10-16T06:59:27;14.10;99.90
19654;DHT22;9975;48.046;7.804;2022-10-16T07:01:53;14.10;99.90
19654;DHT22;9975;48.046;7.804;2022-10-16T07:04:18;14.10;99.90
19654;DHT22;9975;48.046;7.804;2022-10-16T07:06:44;14.10;99.90
19654;DHT22;9975;48.046;7.804;2022-10-16T07:09:10;14.10;99.90
19654;DHT22;9975;48.046;7.804;2022-10-16T07:11:37;14.10;99.90
19654;DHT22;9975;48.046;7.804;2022-10-16T07:14:04;14.10;99.90
19654;DHT22;9975;48.046;7.804;2022-10-16T07:16:32;14.20;99.90
19654;DHT22;9975;48.046;7.804;2022-10-16T07:18:59;14.30;99.90
19654;DHT22;9975;48.046;7.804;2022-10-16T07:21:27;14.30;99.90
19654;DHT22;9975;48.046;7.804;2022-10-16T07:23:58;14.40;99.90
19654;DHT22;9975;48.046;7.804;2022-10-16T07:26:25;14.40;99.90
19654;DHT22;9975;48.046;7.804;2022-10-16T07:28:51;14.40;99.90
19654;DHT22;9975;48.046;7.804;2022-10-16T07:31:19;14.50;99.90
19654;DHT22;9975;48.046;7.804;2022-10-16T07:33:46;14.50;99.90
19654;DHT22;9975;48.046;7.804;2022-10-16T07:36:14;14.50;99.90
19654;DHT22;9975;48.046;7.804;2022-10-16T07:38:40;14.50;99.90
19654;DHT22;9975;48.046;7.804;2022-10-16T07:41:10;14.50;99.90
19654;DHT22;9975;48.046;7.804;2022-10-16T07:43:36;14.50;99.90
19654;DHT22;9975;48.046;7.804;2022-10-16T07:46:02;14.50;99.90
19654;DHT22;9975;48.046;7.804;2022-10-16T07:48:30;14.60;99.90
19654;DHT22;9975;48.046;7.804;2022-10-16T07:51:00;14.60;99.90
19654;DHT22;9975;48.046;7.804;2022-10-16T07:53:26;14.70;99.90
19654;DHT22;9975;48.046;7.804;2022-10-16T07:55:52;14.80;99.90
19654;DHT22;9975;48.046;7.804;2022-10-16T07:58:17;14.90;99.90
19654;DHT22;9975;48.046;7.804;2022-10-16T08:00:43;14.90;99.90
19654;DHT22;9975;48.046;7.804;2022-10-16T08:03:09;14.90;99.90
19654;DHT22;9975;48.046;7.804;2022-10-16T08:05:34;14.90;99.90
19654;DHT22;9975;48.046;7.804;2022-10-16T08:08:01;15.00;99.90
19654;DHT22;9975;48.046;7.804;2022-10-16T08:10:28;15.00;99.90
19654;DHT22;9975;48.046;7.804;2022-10-16T08:12:54;15.10;99.90
19654;DHT22;9975;48.046;7.804;2022-10-16T08:15:20;15.10;99.90
19654;DHT22;9975;48.046;7.804;2022-10-16T08:18:00;15.20;99.90
19654;DHT22;9975;48.046;7.804;2022-10-16T08:20:28;15.30;99.90
19654;DHT22;9975;48.046;7.804;2022-10-16T08:22:53;15.30;99.90
19654;DHT22;9975;48.046;7.804;2022-10-16T08:25:20;15.40;99.90
19654;DHT22;9975;48.046;7.804;2022-10-16T08:27:46;15.40;99.90
19654;DHT22;9975;48.046;7.804;2022-10-16T08:30:12;15.50;99.90
19654;DHT22;9975;48.046;7.804;2022-10-16T08:32:38;15.50;99.90
19654;DHT22;9975;48.046;7.804;2022-10-16T08:35:04;15.60;99.90
19654;DHT22;9975;48.046;7.804;2022-10-16T08:37:31;15.60;99.90
19654;DHT22;9975;48.046;7.804;2022-10-16T08:39:56;15.70;99.90
19654;DHT22;9975;48.046;7.804;2022-10-16T08:42:44;15.70;99.90
19654;DHT22;9975;48.046;7.804;2022-10-16T08:50:41;15.90;99.90
19654;DHT22;9975;48.046;7.804;2022-10-16T08:53:14;15.90;99.90
19654;DHT22;9975;48.046;7.804;2022-10-16T08:55:45;15.90;99.90
19654;DHT22;9975;48.046;7.804;2022-10-16T08:58:14;16.00;99.90
19654;DHT22;9975;48.046;7.804;2022-10-16T09:00:42;16.00;99.90
19654;DHT22;9975;48.046;7.804;2022-10-16T09:20:22;16.70;99.90
19654;DHT22;9975;48.046;7.804;2022-10-16T09:23:23;16.70;99.90
19654;DHT22;9975;48.046;7.804;2022-10-16T09:25:49;16.80;99.90
19654;DHT22;9975;48.046;7.804;2022-10-16T09:28:17;16.90;99.90
19654;DHT22;9975;48.046;7.804;2022-10-16T09:30:43;17.10;99.90
19654;DHT22;9975;48.046;7.804;2022-10-16T09:33:11;17.30;99.90
19654;DHT22;9975;48.046;7.804;2022-10-16T09:35:42;17.50;99.90
19654;DHT22;9975;48.046;7.804;2022-10-16T09:38:08;17.70;99.90
19654;DHT22;9975;48.046;7.804;2022-10-16T09:40:38;17.90;99.90
19654;DHT22;9975;48.046;7.804;2022-10-16T09:43:26;18.10;99.90
19654;DHT22;9975;48.046;7.804;2022-10-16T09:48:21;18.40;99.90
19654;DHT22;9975;48.046;7.804;2022-10-16T09:50:58;18.50;99.90
19654;DHT22;9975;48.046;7.804;2022-10-16T09:53:26;18.60;99.90
19654;DHT22;9975;48.046;7.804;2022-10-16T09:56:02;18.60;99.90
19654;DHT22;9975;48.046;7.804;2022-10-16T09:58:31;18.70;99.90
19654;DHT22;9975;48.046;7.804;2022-10-16T10:00:58;18.80;99.90
19654;DHT22;9975;48.046;7.804;2022-10-16T10:03:41;18.90;99.90
19654;DHT22;9975;48.046;7.804;2022-10-16T10:06:20;19.10;99.90
19654;DHT22;9975;48.046;7.804;2022-10-16T10:09:37;19.20;99.90
19654;DHT22;9975;48.046;7.804;2022-10-16T10:12:05;19.40;99.90
19654;DHT22;9975;48.046;7.804;2022-10-16T10:14:38;19.60;99.90
19654;DHT22;9975;48.046;7.804;2022-10-16T10:22:32;19.90;99.90
19654;DHT22;9975;48.046;7.804;2022-10-16T10:30:46;20.20;99.90
19654;DHT22;9975;48.046;7.804;2022-10-16T10:41:24;20.70;99.90
19654;DHT22;9975;48.046;7.804;2022-10-16T10:46:41;21.00;99.90
19654;DHT22;9975;48.046;7.804;2022-10-16T10:49:26;21.20;99.90
19654;DHT22;9975;48.046;7.804;2022-10-16T10:52:18;21.30;99.90
19654;DHT22;9975;48.046;7.804;2022-10-16T11:01:24;21.40;99.90
19654;DHT22;9975;48.046;7.804;2022-10-16T11:06:51;21.40;99.90
19654;DHT22;9975;48.046;7.804;2022-10-16T11:09:25;21.40;99.90
19654;DHT22;9975;48.046;7.804;2022-10-16T11:20:34;21.50;99.90
19654;DHT22;9975;48.046;7.804;2022-10-16T11:23:17;21.60;99.90
19654;DHT22;9975;48.046;7.804;2022-10-16T11:25:44;21.80;99.90
19654;DHT22;9975;48.046;7.804;2022-10-16T11:28:23;21.90;99.90
19654;DHT22;9975;48.046;7.804;2022-10-16T11:31:05;22.10;99.90
19654;DHT22;9975;48.046;7.804;2022-10-16T11:33:59;22.40;99.90
19654;DHT22;9975;48.046;7.804;2022-10-16T11:36:38;22.60;99.90
19654;DHT22;9975;48.046;7.804;2022-10-16T11:41:58;23.00;99.90
19654;DHT22;9975;48.046;7.804;2022-10-16T11:47:44;23.50;99.90
19654;DHT22;9975;48.046;7.804;2022-10-16T11:53:01;24.10;99.90
19654;DHT22;9975;48.046;7.804;2022-10-16T11:55:40;24.60;99.80
19654;DHT22;9975;48.046;7.804;2022-10-16T12:01:14;25.30;95.20
19654;DHT22;9975;48.046;7.804;2022-10-16T12:06:51;26.10;93.70
19654;DHT22;9975;48.046;7.804;2022-10-16T12:09:26;26.00;91.20
19654;DHT22;9975;48.046;7.804;2022-10-16T12:11:52;25.90;87.30
19654;DHT22;9975;48.046;7.804;2022-10-16T12:14:34;25.90;88.10
19654;DHT22;9975;48.046;7.804;2022-10-16T12:19:58;26.60;89.10
19654;DHT22;9975;48.046;7.804;2022-10-16T12:22:28;26.80;86.70
19654;DHT22;9975;48.046;7.804;2022-10-16T12:24:54;27.00;84.20
19654;DHT22;9975;48.046;7.804;2022-10-16T12:27:31;26.90;80.90
19654;DHT22;9975;48.046;7.804;2022-10-16T12:29:59;26.60;78.30
19654;DHT22;9975;48.046;7.804;2022-10-16T12:32:35;26.50;77.00
19654;DHT22;9975;48.046;7.804;2022-10-16T12:35:03;26.60;78.50
19654;DHT22;9975;48.046;7.804;2022-10-16T12:37:36;26.70;76.70
19654;DHT22;9975;48.046;7.804;2022-10-16T12:40:32;26.70;75.00
19654;DHT22;9975;48.046;7.804;2022-10-16T12:43:10;26.80;72.50
19654;DHT22;9975;48.046;7.804;2022-10-16T12:45:36;26.80;68.30
19654;DHT22;9975;48.046;7.804;2022-10-16T12:48:04;27.00;69.60
19654;DHT22;9975;48.046;7.804;2022-10-16T12:50:43;27.20;66.60
19654;DHT22;9975;48.046;7.804;2022-10-16T12:53:21;27.20;64.80
19654;DHT22;9975;48.046;7.804;2022-10-16T13:02:14;27.60;59.20
19654;DHT22;9975;48.046;7.804;2022-10-16T13:07:53;28.60;58.50
19654;DHT22;9975;48.046;7.804;2022-10-16T13:21:46;29.50;51.60
19654;DHT22;9975;48.046;7.804;2022-10-16T13:27:10;29.90;49.60
19654;DHT22;9975;48.046;7.804;2022-10-16T13:29:38;29.90;49.50
19654;DHT22;9975;48.046;7.804;2022-10-16T13:32:14;29.70;48.90
19654;DHT22;9975;48.046;7.804;2022-10-16T13:34:46;29.70;48.30
19654;DHT22;9975;48.046;7.804;2022-10-16T13:37:18;29.70;48.50
19654;DHT22;9975;48.046;7.804;2022-10-16T13:39:45;29.60;47.80
19654;DHT22;9975;48.046;7.804;2022-10-16T13:42:14;29.50;47.60
19654;DHT22;9975;48.046;7.804;2022-10-16T13:44:50;29.80;49.40
19654;DHT22;9975;48.046;7.804;2022-10-16T13:47:18;30.10;48.80
19654;DHT22;9975;48.046;7.804;2022-10-16T13:49:45;30.10;47.40
19654;DHT22;9975;48.046;7.804;2022-10-16T13:52:19;30.10;46.70
19654;DHT22;9975;48.046;7.804;2022-10-16T13:54:45;30.10;44.80
19654;DHT22;9975;48.046;7.804;2022-10-16T13:57:15;30.20;46.60
19654;DHT22;9975;48.046;7.804;2022-10-16T13:59:41;30.30;46.70
19654;DHT22;9975;48.046;7.804;2022-10-16T14:02:31;30.30;46.30
19654;DHT22;9975;48.046;7.804;2022-10-16T14:05:01;30.40;44.30
19654;DHT22;9975;48.046;7.804;2022-10-16T14:07:30;30.40;45.90
19654;DHT22;9975;48.046;7.804;2022-10-16T14:10:03;30.50;43.80
19654;DHT22;9975;48.046;7.804;2022-10-16T14:12:29;30.60;43.00
19654;DHT22;9975;48.046;7.804;2022-10-16T14:14:57;30.50;41.40
19654;DHT22;9975;48.046;7.804;2022-10-16T14:17:29;30.40;43.50
19654;DHT22;9975;48.046;7.804;2022-10-16T14:19:58;30.20;45.40
19654;DHT22;9975;48.046;7.804;2022-10-16T14:24:56;30.40;46.00
19654;DHT22;9975;48.046;7.804;2022-10-16T14:27:32;30.30;44.30
19654;DHT22;9975;48.046;7.804;2022-10-16T14:30:17;30.40;46.50
19654;DHT22;9975;48.046;7.804;2022-10-16T14:33:20;30.30;47.10
19654;DHT22;9975;48.046;7.804;2022-10-16T14:35:46;30.20;47.00
19654;DHT22;9975;48.046;7.804;2022-10-16T14:38:25;29.60;42.20
19654;DHT22;9975;48.046;7.804;2022-10-16T14:40:50;29.40;47.00
19654;DHT22;9975;48.046;7.804;2022-10-16T14:43:37;29.50;48.30
19654;DHT22;9975;48.046;7.804;2022-10-16T14:46:12;29.60;51.00
19654;DHT22;9975;48.046;7.804;2022-10-16T14:48:50;29.70;52.30
19654;DHT22;9975;48.046;7.804;2022-10-16T14:51:20;29.70;50.60
19654;DHT22;9975;48.046;7.804;2022-10-16T14:53:47;29.70;50.30
19654;DHT22;9975;48.046;7.804;2022-10-16T14:56:24;29.70;50.90
19654;DHT22;9975;48.046;7.804;2022-10-16T14:58:50;29.70;52.10
19654;DHT22;9975;48.046;7.804;2022-10-16T15:01:16;29.50;52.10
19654;DHT22;9975;48.046;7.804;2022-10-16T15:03:43;29.20;52.30
19654;DHT22;9975;48.046;7.804;2022-10-16T15:06:13;29.30;50.30
19654;DHT22;9975;48.046;7.804;2022-10-16T15:08:39;29.30;51.80
19654;DHT22;9975;48.046;7.804;2022-10-16T15:11:11;29.50;53.70
19654;DHT22;9975;48.046;7.804;2022-10-16T15:14:02;29.60;54.10
19654;DHT22;9975;48.046;7.804;2022-10-16T15:16:36;29.70;53.20
19654;DHT22;9975;48.046;7.804;2022-10-16T15:19:03;29.70;48.90
19654;DHT22;9975;48.046;7.804;2022-10-16T15:21:52;29.60;50.30
19654;DHT22;9975;48.046;7.804;2022-10-16T15:24:38;29.70;51.40
19654;DHT22;9975;48.046;7.804;2022-10-16T15:27:05;29.70;49.90
19654;DHT22;9975;48.046;7.804;2022-10-16T15:29:32;29.60;49.70
19654;DHT22;9975;48.046;7.804;2022-10-16T15:31:57;29.50;50.10
19654;DHT22;9975;48.046;7.804;2022-10-16T15:34:24;29.30;49.50
19654;DHT22;9975;48.046;7.804;2022-10-16T15:37:13;29.10;50.80
19654;DHT22;9975;48.046;7.804;2022-10-16T15:39:39;29.00;50.70
19654;DHT22;9975;48.046;7.804;2022-10-16T15:42:06;28.90;51.50
19654;DHT22;9975;48.046;7.804;2022-10-16T15:44:32;28.80;52.30
19654;DHT22;9975;48.046;7.804;2022-10-16T15:46:58;28.70;54.20
19654;DHT22;9975;48.046;7.804;2022-10-16T15:49:24;28.50;54.00
19654;DHT22;9975;48.046;7.804;2022-10-16T15:51:49;28.30;54.10
19654;DHT22;9975;48.046;7.804;2022-10-16T15:54:15;28.10;54.90
19654;DHT22;9975;48.046;7.804;2022-10-16T15:56:40;27.90;55.80
19654;DHT22;9975;48.046;7.804;2022-10-16T15:59:06;27.70;56.50
19654;DHT22;9975;48.046;7.804;2022-10-16T16:01:33;27.40;57.60
19654;DHT22;9975;48.046;7.804;2022-10-16T16:03:59;27.20;59.00
19654;DHT22;9975;48.046;7.804;2022-10-16T16:06:25;27.00;60.20
19654;DHT22;9975;48.046;7.804;2022-10-16T16:08:51;26.80;60.80
19654;DHT22;9975;48.046;7.804;2022-10-16T16:11:18;26.60;62.30
19654;DHT22;9975;48.046;7.804;2022-10-16T16:13:44;26.30;63.80
19654;DHT22;9975;48.046;7.804;2022-10-16T16:16:15;26.10;69.50
19654;DHT22;9975;48.046;7.804;2022-10-16T16:18:42;25.80;70.30
19654;DHT22;9975;48.046;7.804;2022-10-16T16:21:10;25.60;72.10
19654;DHT22;9975;48.046;7.804;2022-10-16T16:23:36;25.10;73.00
19654;DHT22;9975;48.046;7.804;2022-10-16T16:26:13;24.90;75.00
19654;DHT22;9975;48.046;7.804;2022-10-16T16:28:40;24.70;76.40
19654;DHT22;9975;48.046;7.804;2022-10-16T16:31:30;24.60;76.50
19654;DHT22;9975;48.046;7.804;2022-10-16T16:33:56;24.30;77.20
19654;DHT22;9975;48.046;7.804;2022-10-16T16:36:26;23.90;79.00
19654;DHT22;9975;48.046;7.804;2022-10-16T16:38:51;23.80;80.90
19654;DHT22;9975;48.046;7.804;2022-10-16T16:41:20;23.70;81.90
19654;DHT22;9975;48.046;7.804;2022-10-16T16:43:46;23.40;82.70
19654;DHT22;9975;48.046;7.804;2022-10-16T16:46:13;23.20;84.20
19654;DHT22;9975;48.046;7.804;2022-10-16T16:48:39;22.90;85.70
19654;DHT22;9975;48.046;7.804;2022-10-16T16:51:11;22.60;89.10
19654;DHT22;9975;48.046;7.804;2022-10-16T16:53:47;22.30;90.80
19654;DHT22;9975;48.046;7.804;2022-10-16T16:56:13;22.30;91.90
19654;DHT22;9975;48.046;7.804;2022-10-16T16:58:39;22.30;92.70
19654;DHT22;9975;48.046;7.804;2022-10-16T17:01:05;22.20;93.10
19654;DHT22;9975;48.046;7.804;2022-10-16T17:03:33;22.20;94.00
19654;DHT22;9975;48.046;7.804;2022-10-16T17:06:07;22.00;94.50
19654;DHT22;9975;48.046;7.804;2022-10-16T17:08:34;21.90;95.70
19654;DHT22;9975;48.046;7.804;2022-10-16T17:11:00;21.80;95.20
19654;DHT22;9975;48.046;7.804;2022-10-16T17:13:29;21.60;96.10
19654;DHT22;9975;48.046;7.804;2022-10-16T17:15:55;21.40;97.90
19654;DHT22;9975;48.046;7.804;2022-10-16T17:18:22;21.30;99.60
19654;DHT22;9975;48.046;7.804;2022-10-16T17:20:48;21.20;99.90
19654;DHT22;9975;48.046;7.804;2022-10-16T17:23:16;21.10;99.90
19654;DHT22;9975;48.046;7.804;2022-10-16T17:25:42;20.90;99.90
19654;DHT22;9975;48.046;7.804;2022-10-16T17:28:09;20.80;99.90
19654;DHT22;9975;48.046;7.804;2022-10-16T17:30:39;20.70;99.90
19654;DHT22;9975;48.046;7.804;2022-10-16T17:33:06;20.50;99.90
19654;DHT22;9975;48.046;7.804;2022-10-16T17:35:43;20.40;99.90
19654;DHT22;9975;48.046;7.804;2022-10-16T17:38:10;20.20;99.90
19654;DHT22;9975;48.046;7.804;2022-10-16T17:40:37;20.00;99.90
19654;DHT22;9975;48.046;7.804;2022-10-16T17:43:03;19.80;99.90
19654;DHT22;9975;48.046;7.804;2022-10-16T17:45:29;19.70;99.90
19654;DHT22;9975;48.046;7.804;2022-10-16T17:47:55;19.70;99.90
19654;DHT22;9975;48.046;7.804;2022-10-16T17:50:22;19.50;99.90
19654;DHT22;9975;48.046;7.804;2022-10-16T17:52:48;19.40;99.90
19654;DHT22;9975;48.046;7.804;2022-10-16T17:55:13;19.30;99.90
19654;DHT22;9975;48.046;7.804;2022-10-16T17:57:39;19.20;99.90
19654;DHT22;9975;48.046;7.804;2022-10-16T18:00:06;19.10;99.90
19654;DHT22;9975;48.046;7.804;2022-10-16T18:02:32;19.00;99.90
19654;DHT22;9975;48.046;7.804;2022-10-16T18:04:57;18.90;99.90
19654;DHT22;9975;48.046;7.804;2022-10-16T18:07:25;18.90;99.90
19654;DHT22;9975;48.046;7.804;2022-10-16T18:09:51;18.80;99.90
19654;DHT22;9975;48.046;7.804;2022-10-16T18:12:16;18.70;99.90
19654;DHT22;9975;48.046;7.804;2022-10-16T18:14:43;18.70;99.90
19654;DHT22;9975;48.046;7.804;2022-10-16T18:17:09;18.60;99.90
19654;DHT22;9975;48.046;7.804;2022-10-16T18:19:35;18.50;99.90
19654;DHT22;9975;48.046;7.804;2022-10-16T18:22:00;18.20;99.90
19654;DHT22;9975;48.046;7.804;2022-10-16T18:24:26;18.00;99.90
19654;DHT22;9975;48.046;7.804;2022-10-16T18:26:54;18.00;99.90
19654;DHT22;9975;48.046;7.804;2022-10-16T18:29:24;17.90;99.90
19654;DHT22;9975;48.046;7.804;2022-10-16T18:32:03;17.90;99.90
19654;DHT22;9975;48.046;7.804;2022-10-16T18:34:29;17.90;99.90
19654;DHT22;9975;48.046;7.804;2022-10-16T18:36:54;17.90;99.90
19654;DHT22;9975;48.046;7.804;2022-10-16T18:39:21;17.90;99.90
19654;DHT22;9975;48.046;7.804;2022-10-16T18:41:48;17.90;99.90
19654;DHT22;9975;48.046;7.804;2022-10-16T18:44:15;17.90;99.90
19654;DHT22;9975;48.046;7.804;2022-10-16T18:46:42;17.90;99.90
19654;DHT22;9975;48.046;7.804;2022-10-16T18:49:08;17.80;99.90
19654;DHT22;9975;48.046;7.804;2022-10-16T18:51:37;17.70;99.90
19654;DHT22;9975;48.046;7.804;2022-10-16T18:54:06;17.60;99.90
19654;DHT22;9975;48.046;7.804;2022-10-16T18:56:33;17.50;99.90
19654;DHT22;9975;48.046;7.804;2022-10-16T18:59:00;17.30;99.90
19654;DHT22;9975;48.046;7.804;2022-10-16T19:01:28;17.20;99.90
19654;DHT22;9975;48.046;7.804;2022-10-16T19:03:57;17.20;99.90
19654;DHT22;9975;48.046;7.804;2022-10-16T19:06:24;17.20;99.90
19654;DHT22;9975;48.046;7.804;2022-10-16T19:08:50;17.20;99.90
19654;DHT22;9975;48.046;7.804;2022-10-16T19:11:18;17.20;99.90
19654;DHT22;9975;48.046;7.804;2022-10-16T19:13:45;17.10;99.90
19654;DHT22;9975;48.046;7.804;2022-10-16T19:16:18;17.00;99.90
19654;DHT22;9975;48.046;7.804;2022-10-16T19:18:45;16.90;99.90
19654;DHT22;9975;48.046;7.804;2022-10-16T19:21:12;16.70;99.90
19654;DHT22;9975;48.046;7.804;2022-10-16T19:23:38;16.70;99.90
19654;DHT22;9975;48.046;7.804;2022-10-16T19:26:13;16.60;99.90
19654;DHT22;9975;48.046;7.804;2022-10-16T19:28:40;16.60;99.90
19654;DHT22;9975;48.046;7.804;2022-10-16T19:31:08;16.60;99.90
19654;DHT22;9975;48.046;7.804;2022-10-16T19:33:36;16.50;99.90
19654;DHT22;9975;48.046;7.804;2022-10-16T19:36:23;16.40;99.90
19654;DHT22;9975;48.046;7.804;2022-10-16T19:38:57;16.30;99.90
19654;DHT22;9975;48.046;7.804;2022-10-16T19:41:24;16.30;99.90
19654;DHT22;9975;48.046;7.804;2022-10-16T19:43:50;16.30;99.90